sensor_id;sensor_type;location;lat;lon;timestamp;pressure;altitude;pressure_sealevel;temperature;humidity
7441;BME280;29616;51.950;8.572;2023-07-30T00:00:41;99383.94;;;17.21;100.00
7441;BME280;29616;51.950;8.572;2023-07-30T00:03:09;99386.47;;;17.29;100.00
7441;BME280;29616;51.950;8.572;2023-07-30T00:05:38;99377.56;;;17.27;100.00
7441;BME280;29616;51.950;8.572;2023-07-30T00:08:07;99394.13;;;17.40;100.00
7441;BME280;29616;51.950;8.572;2023-07-30T00:10:35;99380.09;;;17.35;100.00
7441;BME280;29616;51.950;8.572;2023-07-30T00:13:04;99377.75;;;17.45;100.00
7441;BME280;29616;51.950;8.572;2023-07-30T00:15:34;99393.06;;;17.54;100.00
7441;BME280;29616;51.950;8.572;2023-07-30T00:18:03;99397.53;;;17.55;100.00
7441;BME280;29616;51.950;8.572;2023-07-30T00:20:33;99402.19;;;17.54;100.00
7441;BME280;29616;51.950;8.572;2023-07-30T00:23:02;99397.53;;;17.55;100.00
7441;BME280;29616;51.950;8.572;2023-07-30T00:25:31;99398.78;;;17.52;100.00
7441;BME280;29616;51.950;8.572;2023-07-30T00:28:00;99406.66;;;17.55;100.00
7441;BME280;29616;51.950;8.572;2023-07-30T00:30:28;99398.78;;;17.52;100.00
7441;BME280;29616;51.950;8.572;2023-07-30T00:32:58;99387.72;;;17.46;100.00
7441;BME280;29616;51.950;8.572;2023-07-30T00:35:27;99404.09;;;17.41;100.00
7441;BME280;29616;51.950;8.572;2023-07-30T00:37:55;99392.63;;;17.37;100.00
7441;BME280;29616;51.950;8.572;2023-07-30T00:40:24;99407.28;;;17.38;100.00
7441;BME280;29616;51.950;8.572;2023-07-30T00:42:52;99400.91;;;17.31;100.00
7441;BME280;29616;51.950;8.572;2023-07-30T00:45:21;99404.94;;;17.28;100.00
7441;BME280;29616;51.950;8.572;2023-07-30T00:47:50;99397.09;;;17.19;100.00
7441;BME280;29616;51.950;8.572;2023-07-30T00:50:21;99399.88;;;17.19;100.00
7441;BME280;29616;51.950;8.572;2023-07-30T00:52:49;99403.91;;;17.16;100.00
7441;BME280;29616;51.950;8.572;2023-07-30T00:55:18;99402.63;;;17.19;100.00
7441;BME280;29616;51.950;8.572;2023-07-30T00:57:48;99400.91;;;17.18;100.00
7441;BME280;29616;51.950;8.572;2023-07-30T01:00:17;99408.16;;;17.19;100.00
7441;BME280;29616;51.950;8.572;2023-07-30T01:02:46;99401.78;;;17.18;100.00
7441;BME280;29616;51.950;8.572;2023-07-30T01:05:14;99407.47;;;17.17;100.00
7441;BME280;29616;51.950;8.572;2023-07-30T01:07:44;99408.34;;;17.11;100.00
7441;BME280;29616;51.950;8.572;2023-07-30T01:10:13;99415.78;;;17.10;100.00
7441;BME280;29616;51.950;8.572;2023-07-30T01:12:43;99410.69;;;17.07;100.00
7441;BME280;29616;51.950;8.572;2023-07-30T01:15:12;99410.22;;;17.04;100.00
7441;BME280;29616;51.950;8.572;2023-07-30T01:17:41;99421.47;;;16.95;100.00
7441;BME280;29616;51.950;8.572;2023-07-30T01:20:11;99419.16;;;16.92;100.00
7441;BME280;29616;51.950;8.572;2023-07-30T01:22:41;99428.69;;;16.90;100.00
7441;BME280;29616;51.950;8.572;2023-07-30T01:25:10;99431.66;;;16.88;100.00
7441;BME280;29616;51.950;8.572;2023-07-30T01:27:43;99409.38;;;16.83;100.00
7441;BME280;29616;51.950;8.572;2023-07-30T01:30:18;99413.63;;;16.86;100.00
7441;BME280;29616;51.950;8.572;2023-07-30T01:32:50;99435.72;;;16.92;100.00
7441;BME280;29616;51.950;8.572;2023-07-30T01:35:22;99439.94;;;16.88;100.00
7441;BME280;29616;51.950;8.572;2023-07-30T01:37:55;99436.09;;;16.83;100.00
7441;BME280;29616;51.950;8.572;2023-07-30T01:40:25;99441.63;;;16.76;100.00
7441;BME280;29616;51.950;8.572;2023-07-30T01:42:53;99446.69;;;16.73;100.00
7441;BME280;29616;51.950;8.572;2023-07-30T01:45:22;99444.13;;;16.71;100.00
7441;BME280;29616;51.950;8.572;2023-07-30T01:47:51;99433.50;;;16.62;100.00
7441;BME280;29616;51.950;8.572;2023-07-30T01:50:20;99443.19;;;16.51;100.00
7441;BME280;29616;51.950;8.572;2023-07-30T01:52:48;99444.00;;;16.38;100.00
7441;BME280;29616;51.950;8.572;2023-07-30T01:55:18;99436.97;;;16.29;100.00
7441;BME280;29616;51.950;8.572;2023-07-30T01:57:46;99449.22;;;16.20;100.00
7441;BME280;29616;51.950;8.572;2023-07-30T02:00:15;99446.81;;;16.11;100.00
7441;BME280;29616;51.950;8.572;2023-07-30T02:02:44;99449.31;;;15.99;100.00
7441;BME280;29616;51.950;8.572;2023-07-30T02:05:12;99442.47;;;15.89;100.00
7441;BME280;29616;51.950;8.572;2023-07-30T02:07:44;99437.72;;;15.76;100.00
7441;BME280;29616;51.950;8.572;2023-07-30T02:10:13;99442.53;;;15.67;100.00
7441;BME280;29616;51.950;8.572;2023-07-30T02:12:43;99441.44;;;15.62;100.00
7441;BME280;29616;51.950;8.572;2023-07-30T02:15:11;99441.38;;;15.55;100.00
7441;BME280;29616;51.950;8.572;2023-07-30T02:17:41;99440.28;;;15.50;100.00
7441;BME280;29616;51.950;8.572;2023-07-30T02:20:10;99441.53;;;15.47;100.00
7441;BME280;29616;51.950;8.572;2023-07-30T02:22:39;99448.88;;;15.40;100.00
7441;BME280;29616;51.950;8.572;2023-07-30T02:25:08;99439.44;;;15.28;100.00
7441;BME280;29616;51.950;8.572;2023-07-30T02:27:37;99441.53;;;15.26;100.00
7441;BME280;29616;51.950;8.572;2023-07-30T02:30:08;99423.28;;;15.18;100.00
7441;BME280;29616;51.950;8.572;2023-07-30T02:32:37;99445.34;;;15.25;100.00
7441;BME280;29616;51.950;8.572;2023-07-30T02:35:06;99439.31;;;15.15;100.00
7441;BME280;29616;51.950;8.572;2023-07-30T02:37:35;99439.16;;;15.16;100.00
7441;BME280;29616;51.950;8.572;2023-07-30T02:40:04;99444.66;;;15.16;100.00
7441;BME280;29616;51.950;8.572;2023-07-30T02:42:33;99438.06;;;15.17;100.00
7441;BME280;29616;51.950;8.572;2023-07-30T02:45:03;99438.41;;;15.29;100.00
7441;BME280;29616;51.950;8.572;2023-07-30T02:47:33;99450.00;;;15.46;100.00
7441;BME280;29616;51.950;8.572;2023-07-30T02:50:03;99447.25;;;15.46;100.00
7441;BME280;29616;51.950;8.572;2023-07-30T02:52:31;99445.19;;;15.54;100.00
7441;BME280;29616;51.950;8.572;2023-07-30T02:55:00;99434.31;;;15.46;100.00
7441;BME280;29616;51.950;8.572;2023-07-30T02:57:29;99455.25;;;15.68;100.00
7441;BME280;29616;51.950;8.572;2023-07-30T02:59:58;99457.38;;;15.66;100.00
7441;BME280;29616;51.950;8.572;2023-07-30T03:02:26;99454.63;;;15.66;100.00
7441;BME280;29616;51.950;8.572;2023-07-30T03:04:56;99457.31;;;15.60;100.00
7441;BME280;29616;51.950;8.572;2023-07-30T03:07:25;99457.13;;;15.61;100.00
7441;BME280;29616;51.950;8.572;2023-07-30T03:09:54;99450.16;;;15.65;100.00
7441;BME280;29616;51.950;8.572;2023-07-30T03:12:22;99454.75;;;15.58;100.00
7441;BME280;29616;51.950;8.572;2023-07-30T03:14:50;99453.06;;;15.57;100.00
7441;BME280;29616;51.950;8.572;2023-07-30T03:17:18;99453.19;;;15.49;100.00
7441;BME280;29616;51.950;8.572;2023-07-30T03:19:46;99463.81;;;15.52;100.00
7441;BME280;29616;51.950;8.572;2023-07-30T03:22:17;99463.78;;;15.46;100.00
7441;BME280;29616;51.950;8.572;2023-07-30T03:24:46;99460.28;;;15.37;100.00
7441;BME280;29616;51.950;8.572;2023-07-30T03:27:15;99461.47;;;15.28;100.00
7441;BME280;29616;51.950;8.572;2023-07-30T03:29:43;99467.34;;;15.25;100.00
7441;BME280;29616;51.950;8.572;2023-07-30T03:32:11;99458.19;;;15.18;100.00
7441;BME280;29616;51.950;8.572;2023-07-30T03:34:40;99469.16;;;15.11;100.00
7441;BME280;29616;51.950;8.572;2023-07-30T03:37:08;99464.31;;;15.13;100.00
7441;BME280;29616;51.950;8.572;2023-07-30T03:39:38;99475.63;;;15.04;100.00
7441;BME280;29616;51.950;8.572;2023-07-30T03:42:06;99466.66;;;14.95;100.00
7441;BME280;29616;51.950;8.572;2023-07-30T03:44:35;99481.00;;;14.91;100.00
7441;BME280;29616;51.950;8.572;2023-07-30T03:47:04;99478.75;;;14.80;100.00
7441;BME280;29616;51.950;8.572;2023-07-30T03:49:34;99480.47;;;14.81;100.00
7441;BME280;29616;51.950;8.572;2023-07-30T03:52:03;99475.34;;;14.78;100.00
7441;BME280;29616;51.950;8.572;2023-07-30T03:54:31;99473.94;;;14.82;100.00
7441;BME280;29616;51.950;8.572;2023-07-30T03:57:03;99486.31;;;14.92;100.00
7441;BME280;29616;51.950;8.572;2023-07-30T03:59:32;99488.59;;;14.89;100.00
7441;BME280;29616;51.950;8.572;2023-07-30T04:02:00;99480.59;;;14.94;100.00
7441;BME280;29616;51.950;8.572;2023-07-30T04:04:29;99477.19;;;14.92;100.00
7441;BME280;29616;51.950;8.572;2023-07-30T04:06:59;99465.59;;;14.75;100.00
7441;BME280;29616;51.950;8.572;2023-07-30T04:09:28;99482.44;;;14.87;100.00
7441;BME280;29616;51.950;8.572;2023-07-30T04:11:59;99481.78;;;14.85;100.00
7441;BME280;29616;51.950;8.572;2023-07-30T04:14:28;99480.59;;;14.94;100.00
7441;BME280;29616;51.950;8.572;2023-07-30T04:16:57;99482.06;;;14.90;100.00
7441;BME280;29616;51.950;8.572;2023-07-30T04:19:25;99492.94;;;14.98;100.00
7441;BME280;29616;51.950;8.572;2023-07-30T04:21:54;99486.19;;;15.00;100.00
7441;BME280;29616;51.950;8.572;2023-07-30T04:24:22;99475.09;;;14.94;100.00
7441;BME280;29616;51.950;8.572;2023-07-30T04:26:51;99476.69;;;15.03;100.00
7441;BME280;29616;51.950;8.572;2023-07-30T04:29:19;99478.19;;;15.05;100.00
7441;BME280;29616;51.950;8.572;2023-07-30T04:31:50;99479.56;;;15.16;100.00
7441;BME280;29616;51.950;8.572;2023-07-30T04:34:18;99473.69;;;15.19;100.00
7441;BME280;29616;51.950;8.572;2023-07-30T04:36:47;99470.06;;;15.18;100.00
7441;BME280;29616;51.950;8.572;2023-07-30T04:39:17;99477.34;;;15.26;100.00
7441;BME280;29616;51.950;8.572;2023-07-30T04:41:46;99477.97;;;15.28;100.00
7441;BME280;29616;51.950;8.572;2023-07-30T04:44:15;99478.44;;;15.32;100.00
7441;BME280;29616;51.950;8.572;2023-07-30T04:46:43;99480.97;;;15.33;100.00
7441;BME280;29616;51.950;8.572;2023-07-30T04:49:14;99448.38;;;15.30;100.00
7441;BME280;29616;51.950;8.572;2023-07-30T04:51:42;99476.66;;;15.66;100.00
7441;BME280;29616;51.950;8.572;2023-07-30T04:54:11;99484.22;;;15.86;100.00
7441;BME280;29616;51.950;8.572;2023-07-30T04:56:40;99486.13;;;15.92;100.00
7441;BME280;29616;51.950;8.572;2023-07-30T04:59:09;99482.41;;;16.06;100.00
7441;BME280;29616;51.950;8.572;2023-07-30T05:01:38;99491.41;;;16.21;100.00
7441;BME280;29616;51.950;8.572;2023-07-30T05:04:06;99487.84;;;16.27;100.00
7441;BME280;29616;51.950;8.572;2023-07-30T05:06:36;99480.66;;;16.32;100.00
7441;BME280;29616;51.950;8.572;2023-07-30T05:09:05;99490.50;;;16.48;100.00
7441;BME280;29616;51.950;8.572;2023-07-30T05:11:34;99496.66;;;16.50;100.00
7441;BME280;29616;51.950;8.572;2023-07-30T05:14:03;99503.38;;;16.75;100.00
7441;BME280;29616;51.950;8.572;2023-07-30T05:16:31;99502.91;;;16.65;100.00
7441;BME280;29616;51.950;8.572;2023-07-30T05:19:00;99502.59;;;16.47;100.00
7441;BME280;29616;51.950;8.572;2023-07-30T05:21:29;99500.38;;;16.70;100.00
7441;BME280;29616;51.950;8.572;2023-07-30T05:23:59;99495.56;;;16.85;100.00
7441;BME280;29616;51.950;8.572;2023-07-30T05:26:27;99489.41;;;16.83;100.00
7441;BME280;29616;51.950;8.572;2023-07-30T05:28:56;99496.38;;;16.73;100.00
7441;BME280;29616;51.950;8.572;2023-07-30T05:31:24;99495.19;;;17.02;100.00
7441;BME280;29616;51.950;8.572;2023-07-30T05:33:53;99484.97;;;16.89;100.00
7441;BME280;29616;51.950;8.572;2023-07-30T05:36:22;99496.41;;;16.86;100.00
7441;BME280;29616;51.950;8.572;2023-07-30T05:38:50;99484.97;;;16.95;100.00
7441;BME280;29616;51.950;8.572;2023-07-30T05:41:20;99477.78;;;17.08;100.00
7441;BME280;29616;51.950;8.572;2023-07-30T05:43:49;99489.25;;;17.18;100.00
7441;BME280;29616;51.950;8.572;2023-07-30T05:46:17;99470.75;;;16.92;100.00
7441;BME280;29616;51.950;8.572;2023-07-30T05:48:46;99484.16;;;17.08;100.00
7441;BME280;29616;51.950;8.572;2023-07-30T05:51:14;99496.94;;;17.42;100.00
7441;BME280;29616;51.950;8.572;2023-07-30T05:53:43;99491.25;;;17.76;100.00
7441;BME280;29616;51.950;8.572;2023-07-30T05:56:11;99489.53;;;18.01;100.00
7441;BME280;29616;51.950;8.572;2023-07-30T05:58:42;99502.03;;;18.10;100.00
7441;BME280;29616;51.950;8.572;2023-07-30T06:01:10;99500.78;;;18.00;100.00
7441;BME280;29616;51.950;8.572;2023-07-30T06:03:39;99505.44;;;17.99;100.00
7441;BME280;29616;51.950;8.572;2023-07-30T06:06:07;99461.41;;;18.04;100.00
7441;BME280;29616;51.950;8.572;2023-07-30T06:08:36;99497.28;;;18.57;100.00
7441;BME280;29616;51.950;8.572;2023-07-30T06:11:05;99503.72;;;19.26;100.00
7441;BME280;29616;51.950;8.572;2023-07-30T06:13:33;99491.44;;;19.16;100.00
7441;BME280;29616;51.950;8.572;2023-07-30T06:16:03;99514.38;;;18.92;100.00
7441;BME280;29616;51.950;8.572;2023-07-30T06:18:32;99513.44;;;18.60;100.00
7441;BME280;29616;51.950;8.572;2023-07-30T06:21:01;99508.34;;;18.37;100.00
7441;BME280;29616;51.950;8.572;2023-07-30T06:23:29;99496.47;;;18.30;100.00
7441;BME280;29616;51.950;8.572;2023-07-30T06:25:58;99522.44;;;18.16;100.00
7441;BME280;29616;51.950;8.572;2023-07-30T06:28:27;99512.88;;;18.25;100.00
7441;BME280;29616;51.950;8.572;2023-07-30T06:30:55;99514.75;;;18.38;100.00
7441;BME280;29616;51.950;8.572;2023-07-30T06:33:29;99520.28;;;18.51;100.00
7441;BME280;29616;51.950;8.572;2023-07-30T06:35:59;99518.06;;;18.66;100.00
7441;BME280;29616;51.950;8.572;2023-07-30T06:38:28;99517.94;;;18.54;100.00
7441;BME280;29616;51.950;8.572;2023-07-30T06:40:56;99490.28;;;18.35;100.00
7441;BME280;29616;51.950;8.572;2023-07-30T06:43:25;99515.16;;;18.54;100.00
7441;BME280;29616;51.950;8.572;2023-07-30T06:45:54;99504.53;;;18.38;100.00
7441;BME280;29616;51.950;8.572;2023-07-30T06:48:23;99512.63;;;18.33;100.00
7441;BME280;29616;51.950;8.572;2023-07-30T06:50:53;99508.28;;;18.70;100.00
7441;BME280;29616;51.950;8.572;2023-07-30T06:53:21;99506.63;;;18.56;100.00
7441;BME280;29616;51.950;8.572;2023-07-30T06:55:49;99521.75;;;18.60;100.00
7441;BME280;29616;51.950;8.572;2023-07-30T06:58:18;99532.75;;;18.73;100.00
7441;BME280;29616;51.950;8.572;2023-07-30T07:00:47;99530.81;;;18.80;100.00
7441;BME280;29616;51.950;8.572;2023-07-30T07:03:15;99528.94;;;18.67;100.00
7441;BME280;29616;51.950;8.572;2023-07-30T07:05:44;99536.97;;;18.82;100.00
7441;BME280;29616;51.950;8.572;2023-07-30T07:08:14;99532.47;;;18.88;100.00
7441;BME280;29616;51.950;8.572;2023-07-30T07:10:44;99540.16;;;18.79;100.00
7441;BME280;29616;51.950;8.572;2023-07-30T07:13:12;99517.59;;;18.82;100.00
7441;BME280;29616;51.950;8.572;2023-07-30T07:15:43;99532.09;;;18.77;100.00
7441;BME280;29616;51.950;8.572;2023-07-30T07:18:12;99539.78;;;18.69;100.00
7441;BME280;29616;51.950;8.572;2023-07-30T07:20:40;99552.38;;;18.58;100.00
7441;BME280;29616;51.950;8.572;2023-07-30T07:23:09;99552.19;;;18.34;100.00
7441;BME280;29616;51.950;8.572;2023-07-30T07:25:41;99552.81;;;18.42;100.00
7441;BME280;29616;51.950;8.572;2023-07-30T07:28:09;99554.72;;;18.61;100.00
7441;BME280;29616;51.950;8.572;2023-07-30T07:30:38;99558.97;;;18.64;100.00
7441;BME280;29616;51.950;8.572;2023-07-30T07:33:07;99553.81;;;18.74;100.00
7441;BME280;29616;51.950;8.572;2023-07-30T07:35:39;99551.94;;;18.61;100.00
7441;BME280;29616;51.950;8.572;2023-07-30T07:38:08;99557.25;;;18.69;100.00
7441;BME280;29616;51.950;8.572;2023-07-30T07:40:37;99553.91;;;18.41;100.00
7441;BME280;29616;51.950;8.572;2023-07-30T07:43:09;99560.91;;;18.50;100.00
7441;BME280;29616;51.950;8.572;2023-07-30T07:45:37;99562.00;;;18.49;100.00
7441;BME280;29616;51.950;8.572;2023-07-30T07:48:05;99554.34;;;18.38;100.00
7441;BME280;29616;51.950;8.572;2023-07-30T07:50:34;99561.16;;;18.36;100.00
7441;BME280;29616;51.950;8.572;2023-07-30T07:53:02;99555.63;;;18.36;100.00
7441;BME280;29616;51.950;8.572;2023-07-30T07:55:31;99550.31;;;18.21;100.00
7441;BME280;29616;51.950;8.572;2023-07-30T07:58:00;99551.81;;;18.17;100.00
7441;BME280;29616;51.950;8.572;2023-07-30T08:00:30;99552.44;;;18.12;100.00
7441;BME280;29616;51.950;8.572;2023-07-30T08:02:58;99531.84;;;17.89;100.00
7441;BME280;29616;51.950;8.572;2023-07-30T08:05:27;99535.25;;;17.84;100.00
7441;BME280;29616;51.950;8.572;2023-07-30T08:07:55;99526.09;;;17.97;100.00
7441;BME280;29616;51.950;8.572;2023-07-30T08:10:24;99550.53;;;18.00;100.00
7441;BME280;29616;51.950;8.572;2023-07-30T08:12:52;99541.59;;;17.91;100.00
7441;BME280;29616;51.950;8.572;2023-07-30T08:15:21;99550.94;;;18.23;100.00
7441;BME280;29616;51.950;8.572;2023-07-30T08:17:52;99560.91;;;18.44;100.00
7441;BME280;29616;51.950;8.572;2023-07-30T08:20:21;99557.28;;;18.37;100.00
7441;BME280;29616;51.950;8.572;2023-07-30T08:22:50;99552.22;;;18.21;100.00
7441;BME280;29616;51.950;8.572;2023-07-30T08:25:18;99543.09;;;18.13;100.00
7441;BME280;29616;51.950;8.572;2023-07-30T08:27:47;99547.97;;;18.18;100.00
7441;BME280;29616;51.950;8.572;2023-07-30T08:30:15;99549.66;;;18.12;100.00
7441;BME280;29616;51.950;8.572;2023-07-30T08:32:44;99541.38;;;17.99;100.00
7441;BME280;29616;51.950;8.572;2023-07-30T08:35:14;99548.44;;;17.82;100.00
7441;BME280;29616;51.950;8.572;2023-07-30T08:37:42;99553.53;;;17.72;100.00
7441;BME280;29616;51.950;8.572;2023-07-30T08:40:11;99554.59;;;17.91;100.00
7441;BME280;29616;51.950;8.572;2023-07-30T08:42:43;99566.50;;;17.85;100.00
7441;BME280;29616;51.950;8.572;2023-07-30T08:45:12;99567.13;;;17.87;100.00
7441;BME280;29616;51.950;8.572;2023-07-30T08:47:41;99551.19;;;17.95;100.00
7441;BME280;29616;51.950;8.572;2023-07-30T08:50:10;99554.81;;;17.96;100.00
7441;BME280;29616;51.950;8.572;2023-07-30T08:52:41;99568.41;;;18.04;100.00
7441;BME280;29616;51.950;8.572;2023-07-30T08:55:10;99549.25;;;18.02;100.00
7441;BME280;29616;51.950;8.572;2023-07-30T08:57:41;99558.41;;;18.03;100.00
7441;BME280;29616;51.950;8.572;2023-07-30T09:00:14;99557.97;;;17.99;100.00
7441;BME280;29616;51.950;8.572;2023-07-30T09:02:47;99558.63;;;18.01;100.00
7441;BME280;29616;51.950;8.572;2023-07-30T09:05:16;99544.81;;;17.88;100.00
7441;BME280;29616;51.950;8.572;2023-07-30T09:07:46;99549.28;;;17.89;100.00
7441;BME280;29616;51.950;8.572;2023-07-30T09:10:15;99567.16;;;17.80;100.00
7441;BME280;29616;51.950;8.572;2023-07-30T09:12:44;99563.72;;;17.91;100.00
7441;BME280;29616;51.950;8.572;2023-07-30T09:15:15;99567.13;;;18.20;100.00
7441;BME280;29616;51.950;8.572;2023-07-30T09:17:45;99575.19;;;18.54;100.00
7441;BME280;29616;51.950;8.572;2023-07-30T09:20:14;99574.47;;;18.78;100.00
7441;BME280;29616;51.950;8.572;2023-07-30T09:22:42;99582.91;;;18.96;100.00
7441;BME280;29616;51.950;8.572;2023-07-30T09:25:12;99569.13;;;18.83;100.00
7441;BME280;29616;51.950;8.572;2023-07-30T09:27:43;99585.69;;;18.90;100.00
7441;BME280;29616;51.950;8.572;2023-07-30T09:30:22;99576.56;;;18.83;100.00
7441;BME280;29616;51.950;8.572;2023-07-30T09:32:52;99576.44;;;18.64;100.00
7441;BME280;29616;51.950;8.572;2023-07-30T09:35:21;99591.16;;;18.52;100.00
7441;BME280;29616;51.950;8.572;2023-07-30T09:37:59;99597.31;;;18.47;100.00
7441;BME280;29616;51.950;8.572;2023-07-30T09:40:36;99592.84;;;18.27;100.00
7441;BME280;29616;51.950;8.572;2023-07-30T09:43:06;99592.03;;;18.20;100.00
7441;BME280;29616;51.950;8.572;2023-07-30T09:45:36;99600.94;;;18.48;100.00
7441;BME280;29616;51.950;8.572;2023-07-30T09:48:06;99599.19;;;18.73;100.00
7441;BME280;29616;51.950;8.572;2023-07-30T09:50:35;99604.53;;;18.61;100.00
7441;BME280;29616;51.950;8.572;2023-07-30T09:53:04;99593.84;;;18.71;100.00
7441;BME280;29616;51.950;8.572;2023-07-30T09:55:34;99608.31;;;19.38;100.00
7441;BME280;29616;51.950;8.572;2023-07-30T09:58:03;99597.91;;;20.20;100.00
7441;BME280;29616;51.950;8.572;2023-07-30T10:00:33;99582.44;;;20.37;100.00
7441;BME280;29616;51.950;8.572;2023-07-30T10:03:02;99593.50;;;20.80;100.00
7441;BME280;29616;51.950;8.572;2023-07-30T10:05:33;99594.06;;;20.89;100.00
7441;BME280;29616;51.950;8.572;2023-07-30T10:08:08;99614.41;;;21.37;100.00
7441;BME280;29616;51.950;8.572;2023-07-30T10:10:39;99596.88;;;20.64;100.00
7441;BME280;29616;51.950;8.572;2023-07-30T10:13:09;99627.28;;;20.34;100.00
7441;BME280;29616;51.950;8.572;2023-07-30T10:15:40;99625.25;;;19.92;100.00
7441;BME280;29616;51.950;8.572;2023-07-30T10:18:09;99615.22;;;19.91;100.00
7441;BME280;29616;51.950;8.572;2023-07-30T10:20:39;99621.59;;;20.47;100.00
7441;BME280;29616;51.950;8.572;2023-07-30T10:23:08;99605.78;;;20.30;100.00
7441;BME280;29616;51.950;8.572;2023-07-30T10:25:46;99613.34;;;21.02;100.00
7441;BME280;29616;51.950;8.572;2023-07-30T10:28:32;99582.31;;;21.05;100.00
7441;BME280;29616;51.950;8.572;2023-07-30T10:31:06;99605.00;;;21.20;100.00
7441;BME280;29616;51.950;8.572;2023-07-30T10:33:49;99620.63;;;21.81;100.00
7441;BME280;29616;51.950;8.572;2023-07-30T10:38:54;99621.31;;;20.74;100.00
7441;BME280;29616;51.950;8.572;2023-07-30T10:41:24;99623.94;;;20.69;100.00
7441;BME280;29616;51.950;8.572;2023-07-30T10:43:53;99616.53;;;20.63;100.00
7441;BME280;29616;51.950;8.572;2023-07-30T10:46:22;99625.41;;;20.28;100.00
7441;BME280;29616;51.950;8.572;2023-07-30T10:48:52;99613.41;;;20.34;100.00
7441;BME280;29616;51.950;8.572;2023-07-30T10:51:20;99585.06;;;20.87;100.00
7441;BME280;29616;51.950;8.572;2023-07-30T10:53:50;99574.28;;;21.63;100.00
7441;BME280;29616;51.950;8.572;2023-07-30T10:56:24;99615.34;;;22.90;100.00
7441;BME280;29616;51.950;8.572;2023-07-30T10:58:54;99613.38;;;23.65;100.00
7441;BME280;29616;51.950;8.572;2023-07-30T11:01:25;99593.31;;;23.96;100.00
7441;BME280;29616;51.950;8.572;2023-07-30T11:03:55;99606.03;;;24.54;100.00
7441;BME280;29616;51.950;8.572;2023-07-30T11:06:24;99620.22;;;24.02;100.00
7441;BME280;29616;51.950;8.572;2023-07-30T11:08:53;99622.09;;;23.17;100.00
7441;BME280;29616;51.950;8.572;2023-07-30T11:11:24;99607.47;;;22.52;100.00
7441;BME280;29616;51.950;8.572;2023-07-30T11:13:52;99611.81;;;22.25;100.00
7441;BME280;29616;51.950;8.572;2023-07-30T11:16:21;99612.31;;;22.91;100.00
7441;BME280;29616;51.950;8.572;2023-07-30T11:18:50;99609.38;;;23.61;100.00
7441;BME280;29616;51.950;8.572;2023-07-30T11:21:18;99588.28;;;23.14;100.00
7441;BME280;29616;51.950;8.572;2023-07-30T11:23:47;99590.25;;;23.53;100.00
7441;BME280;29616;51.950;8.572;2023-07-30T11:26:19;99595.44;;;24.89;100.00
7441;BME280;29616;51.950;8.572;2023-07-30T11:28:49;99581.13;;;24.86;100.00
7441;BME280;29616;51.950;8.572;2023-07-30T11:31:18;99586.69;;;23.86;100.00
7441;BME280;29616;51.950;8.572;2023-07-30T11:33:49;99577.63;;;24.24;100.00
7441;BME280;29616;51.950;8.572;2023-07-30T11:36:22;99587.75;;;24.63;100.00
7441;BME280;29616;51.950;8.572;2023-07-30T11:38:53;99572.69;;;24.64;100.00
7441;BME280;29616;51.950;8.572;2023-07-30T11:41:23;99586.50;;;25.79;100.00
7441;BME280;29616;51.950;8.572;2023-07-30T11:43:54;99577.91;;;24.77;100.00
7441;BME280;29616;51.950;8.572;2023-07-30T11:46:23;99596.44;;;23.55;100.00
7441;BME280;29616;51.950;8.572;2023-07-30T11:48:53;99561.34;;;24.04;100.00
7441;BME280;29616;51.950;8.572;2023-07-30T11:51:38;99582.09;;;24.41;100.00
7441;BME280;29616;51.950;8.572;2023-07-30T11:54:07;99603.88;;;23.66;100.00
7441;BME280;29616;51.950;8.572;2023-07-30T11:56:37;99593.94;;;23.30;100.00
7441;BME280;29616;51.950;8.572;2023-07-30T11:59:07;99595.41;;;23.89;100.00
7441;BME280;29616;51.950;8.572;2023-07-30T12:01:36;99579.34;;;24.96;100.00
7441;BME280;29616;51.950;8.572;2023-07-30T12:04:06;99590.44;;;23.91;100.00
7441;BME280;29616;51.950;8.572;2023-07-30T12:06:42;99589.03;;;23.09;100.00
7441;BME280;29616;51.950;8.572;2023-07-30T12:09:12;99584.31;;;22.05;100.00
7441;BME280;29616;51.950;8.572;2023-07-30T12:11:46;99592.41;;;21.65;100.00
7441;BME280;29616;51.950;8.572;2023-07-30T12:14:17;99596.25;;;21.53;100.00
7441;BME280;29616;51.950;8.572;2023-07-30T12:16:46;99605.91;;;21.32;100.00
7441;BME280;29616;51.950;8.572;2023-07-30T12:19:14;99597.03;;;21.05;100.00
7441;BME280;29616;51.950;8.572;2023-07-30T12:21:43;99598.19;;;20.80;100.00
7441;BME280;29616;51.950;8.572;2023-07-30T12:24:12;99610.00;;;20.75;100.00
7441;BME280;29616;51.950;8.572;2023-07-30T12:26:40;99565.25;;;21.01;100.00
7441;BME280;29616;51.950;8.572;2023-07-30T12:29:09;99610.50;;;21.56;100.00
7441;BME280;29616;51.950;8.572;2023-07-30T12:31:39;99584.16;;;21.59;100.00
7441;BME280;29616;51.950;8.572;2023-07-30T12:34:08;99614.06;;;21.63;100.00
7441;BME280;29616;51.950;8.572;2023-07-30T12:36:36;99616.25;;;21.43;100.00
7441;BME280;29616;51.950;8.572;2023-07-30T12:39:05;99607.03;;;21.43;100.00
7441;BME280;29616;51.950;8.572;2023-07-30T12:41:35;99618.88;;;21.38;100.00
7441;BME280;29616;51.950;8.572;2023-07-30T12:44:04;99611.31;;;21.27;100.00
7441;BME280;29616;51.950;8.572;2023-07-30T12:46:33;99622.09;;;21.24;100.00
7441;BME280;29616;51.950;8.572;2023-07-30T12:49:03;99617.34;;;21.06;100.00
7441;BME280;29616;51.950;8.572;2023-07-30T12:51:32;99613.22;;;21.15;100.00
7441;BME280;29616;51.950;8.572;2023-07-30T12:54:01;99630.34;;;22.19;100.00
7441;BME280;29616;51.950;8.572;2023-07-30T12:56:30;99622.94;;;24.14;100.00
7441;BME280;29616;51.950;8.572;2023-07-30T12:59:01;99622.38;;;24.12;100.00
7441;BME280;29616;51.950;8.572;2023-07-30T13:01:30;99629.63;;;23.68;100.00
7441;BME280;29616;51.950;8.572;2023-07-30T13:03:58;99627.38;;;24.43;100.00
7441;BME280;29616;51.950;8.572;2023-07-30T13:06:28;99618.47;;;23.68;100.00
7441;BME280;29616;51.950;8.572;2023-07-30T13:08:57;99595.97;;;23.35;100.00
7441;BME280;29616;51.950;8.572;2023-07-30T13:11:25;99605.59;;;23.27;100.00
7441;BME280;29616;51.950;8.572;2023-07-30T13:13:54;99593.16;;;23.07;100.00